• vieta
  • image
  • image
  • image
mod_vvisit_countermod_vvisit_countermod_vvisit_countermod_vvisit_countermod_vvisit_countermod_vvisit_countermod_vvisit_counter
mod_vvisit_counterŠiandien111
mod_vvisit_counterVakar830
mod_vvisit_counterŠią savaitę941
mod_vvisit_counterPraėjusią savaitę4472
mod_vvisit_counterŠį mėnesį6769
mod_vvisit_counterPraėjusį mėnesį17680
mod_vvisit_counterViso1032681

Mes turime: 37 svečius online
Jūsų IP: 3.80.177.176
 , 
Šiandien: Gruo 11, 2018
Oro uostas / Naujienos / 2012 Gegužė

2012 Gegužė

Šiaulių oro uoste 2012 m. gegužės mėn. 7 d. nusileido oro linijų bendrovės „MNG Airlines“ užsakomasis krovininis orlaivis Airbus A-300, kuriuo buvo eksportuojami kroviniai iš Šiaulių į Turkiją. „MNG Airlines“ yra krovininių oro linijų bendrovė, įsikūrusi Stambule. Bendrovė atlieka reguliarius ir užsakomuosius skrydžius Artimuosiuose bei Tolimuosius Rytuose, JAV bei Europoje.

Šiandien

Antradienis, 11 Gruodis 2018

Orų prognozė aviacijai

[source: ADDS]
METAR
EYSA 110650Z 30003KT 280V340 0700 0650NW R32R/0900N FZFG VV002 M02/M02 Q1008 R32R/29//95 AMB NOSIG =
TAF EYSA 110506Z 1106/1115 VRB05KT 0600 FZFG VV002 TEMPO 1106/1109 1500 BR PROB40 TEMPO 1106/1109 -FZDZ BECMG 1109/1110 5000 BR BKN005
TAF
TAF EYSA 110506Z 1106/1115 VRB05KT 0600 FZFG VV002 TEMPO 1106/1109 1500 BR PROB40 TEMPO 1106/1109 -FZDZ BECMG 1109/1110 5000 BR BKN005 =
SR / SS: 06:42 / 13:59 UTC (EYSA 2018-12-11)

Paieška

Lankytojai

Mes turime 37 svečius online

tic logo lt